sensor_id;sensor_type;location;lat;lon;timestamp;P1;durP1;ratioP1;P2;durP2;ratioP2
56319;SDS011;42226;42.382;23.748;2023-01-10T00:01:31;245.68;;;26.65;;
56319;SDS011;42226;42.382;23.748;2023-01-10T00:03:58;168.48;;;25.23;;
56319;SDS011;42226;42.382;23.748;2023-01-10T00:06:26;243.18;;;27.65;;
56319;SDS011;42226;42.382;23.748;2023-01-10T00:08:53;674.40;;;50.30;;
56319;SDS011;42226;42.382;23.748;2023-01-10T00:11:21;426.25;;;34.92;;
56319;SDS011;42226;42.382;23.748;2023-01-10T00:14:08;193.35;;;25.80;;
56319;SDS011;42226;42.382;23.748;2023-01-10T00:16:37;187.38;;;24.75;;
56319;SDS011;42226;42.382;23.748;2023-01-10T00:19:06;227.55;;;28.73;;
56319;SDS011;42226;42.382;23.748;2023-01-10T00:21:36;351.95;;;28.40;;
56319;SDS011;42226;42.382;23.748;2023-01-10T00:24:04;345.58;;;29.38;;
56319;SDS011;42226;42.382;23.748;2023-01-10T00:26:47;271.63;;;27.27;;
56319;SDS011;42226;42.382;23.748;2023-01-10T00:29:17;143.07;;;23.38;;
56319;SDS011;42226;42.382;23.748;2023-01-10T00:31:47;270.17;;;26.55;;
56319;SDS011;42226;42.382;23.748;2023-01-10T00:34:16;274.58;;;28.48;;
56319;SDS011;42226;42.382;23.748;2023-01-10T00:36:45;237.65;;;26.90;;
56319;SDS011;42226;42.382;23.748;2023-01-10T00:39:12;162.63;;;24.17;;
56319;SDS011;42226;42.382;23.748;2023-01-10T00:41:49;169.60;;;24.95;;
56319;SDS011;42226;42.382;23.748;2023-01-10T00:44:45;107.57;;;23.10;;
56319;SDS011;42226;42.382;23.748;2023-01-10T00:47:12;223.75;;;26.65;;
56319;SDS011;42226;42.382;23.748;2023-01-10T00:49:41;332.02;;;29.75;;
56319;SDS011;42226;42.382;23.748;2023-01-10T00:52:09;203.23;;;25.95;;
56319;SDS011;42226;42.382;23.748;2023-01-10T00:54:36;265.48;;;26.70;;
56319;SDS011;42226;42.382;23.748;2023-01-10T00:57:03;441.02;;;34.92;;
56319;SDS011;42226;42.382;23.748;2023-01-10T00:59:30;313.00;;;28.25;;
56319;SDS011;42226;42.382;23.748;2023-01-10T01:01:58;315.75;;;28.00;;
56319;SDS011;42226;42.382;23.748;2023-01-10T01:04:25;538.05;;;37.53;;
56319;SDS011;42226;42.382;23.748;2023-01-10T01:06:53;362.15;;;28.65;;
56319;SDS011;42226;42.382;23.748;2023-01-10T01:09:20;239.75;;;23.63;;
56319;SDS011;42226;42.382;23.748;2023-01-10T01:11:48;440.55;;;33.10;;
56319;SDS011;42226;42.382;23.748;2023-01-10T01:14:15;209.55;;;24.55;;
56319;SDS011;42226;42.382;23.748;2023-01-10T01:16:43;370.83;;;30.17;;
56319;SDS011;42226;42.382;23.748;2023-01-10T01:19:09;221.02;;;22.77;;
56319;SDS011;42226;42.382;23.748;2023-01-10T01:21:37;258.60;;;27.08;;
56319;SDS011;42226;42.382;23.748;2023-01-10T01:24:04;261.10;;;26.85;;
56319;SDS011;42226;42.382;23.748;2023-01-10T01:26:34;216.50;;;24.35;;
56319;SDS011;42226;42.382;23.748;2023-01-10T01:29:02;281.55;;;26.50;;
56319;SDS011;42226;42.382;23.748;2023-01-10T01:31:29;648.40;;;40.38;;
56319;SDS011;42226;42.382;23.748;2023-01-10T01:33:57;421.60;;;29.98;;
56319;SDS011;42226;42.382;23.748;2023-01-10T01:36:25;662.72;;;38.88;;
56319;SDS011;42226;42.382;23.748;2023-01-10T01:38:52;358.75;;;31.42;;
56319;SDS011;42226;42.382;23.748;2023-01-10T01:41:19;495.63;;;32.47;;
56319;SDS011;42226;42.382;23.748;2023-01-10T01:44:06;155.95;;;20.48;;
56319;SDS011;42226;42.382;23.748;2023-01-10T01:46:41;226.57;;;24.17;;
56319;SDS011;42226;42.382;23.748;2023-01-10T01:49:18;488.45;;;33.00;;
56319;SDS011;42226;42.382;23.748;2023-01-10T01:51:50;403.13;;;26.75;;
56319;SDS011;42226;42.382;23.748;2023-01-10T01:54:24;225.15;;;21.77;;
56319;SDS011;42226;42.382;23.748;2023-01-10T01:56:56;183.27;;;23.70;;
56319;SDS011;42226;42.382;23.748;2023-01-10T01:59:30;487.75;;;34.47;;
56319;SDS011;42226;42.382;23.748;2023-01-10T02:02:08;270.67;;;24.63;;
56319;SDS011;42226;42.382;23.748;2023-01-10T02:04:57;454.33;;;29.23;;
56319;SDS011;42226;42.382;23.748;2023-01-10T02:07:36;672.85;;;37.13;;
56319;SDS011;42226;42.382;23.748;2023-01-10T02:12:45;420.02;;;28.55;;
56319;SDS011;42226;42.382;23.748;2023-01-10T02:15:14;327.13;;;25.08;;
56319;SDS011;42226;42.382;23.748;2023-01-10T02:17:43;229.63;;;21.58;;
56319;SDS011;42226;42.382;23.748;2023-01-10T02:20:14;362.02;;;28.08;;
56319;SDS011;42226;42.382;23.748;2023-01-10T02:35:39;305.45;;;24.50;;
56319;SDS011;42226;42.382;23.748;2023-01-10T02:38:48;259.02;;;23.80;;
56319;SDS011;42226;42.382;23.748;2023-01-10T02:41:44;210.85;;;21.30;;
56319;SDS011;42226;42.382;23.748;2023-01-10T02:44:24;429.50;;;30.92;;
56319;SDS011;42226;42.382;23.748;2023-01-10T02:47:06;420.67;;;31.00;;
56319;SDS011;42226;42.382;23.748;2023-01-10T02:49:40;377.42;;;27.35;;
56319;SDS011;42226;42.382;23.748;2023-01-10T02:52:09;593.95;;;36.90;;
56319;SDS011;42226;42.382;23.748;2023-01-10T02:54:43;457.63;;;29.80;;
56319;SDS011;42226;42.382;23.748;2023-01-10T03:03:04;170.80;;;23.60;;
56319;SDS011;42226;42.382;23.748;2023-01-10T03:05:46;432.98;;;30.98;;
56319;SDS011;42226;42.382;23.748;2023-01-10T03:08:41;428.45;;;28.00;;
56319;SDS011;42226;42.382;23.748;2023-01-10T03:11:40;302.08;;;26.00;;
56319;SDS011;42226;42.382;23.748;2023-01-10T03:14:15;284.85;;;23.70;;
56319;SDS011;42226;42.382;23.748;2023-01-10T03:16:54;365.27;;;28.98;;
56319;SDS011;42226;42.382;23.748;2023-01-10T03:22:19;260.92;;;24.02;;
56319;SDS011;42226;42.382;23.748;2023-01-10T03:24:47;249.57;;;23.63;;
56319;SDS011;42226;42.382;23.748;2023-01-10T03:28:01;510.85;;;30.90;;
56319;SDS011;42226;42.382;23.748;2023-01-10T03:30:29;440.13;;;25.63;;
56319;SDS011;42226;42.382;23.748;2023-01-10T03:33:10;451.85;;;29.05;;
56319;SDS011;42226;42.382;23.748;2023-01-10T03:35:49;371.27;;;30.13;;
56319;SDS011;42226;42.382;23.748;2023-01-10T03:38:42;350.23;;;27.08;;
56319;SDS011;42226;42.382;23.748;2023-01-10T03:41:37;571.35;;;35.30;;
56319;SDS011;42226;42.382;23.748;2023-01-10T03:44:18;536.50;;;34.63;;
56319;SDS011;42226;42.382;23.748;2023-01-10T03:47:09;284.38;;;25.80;;
56319;SDS011;42226;42.382;23.748;2023-01-10T03:50:08;333.70;;;27.73;;
56319;SDS011;42226;42.382;23.748;2023-01-10T03:52:38;469.02;;;31.30;;
56319;SDS011;42226;42.382;23.748;2023-01-10T03:55:09;300.42;;;25.10;;
56319;SDS011;42226;42.382;23.748;2023-01-10T03:57:43;237.52;;;24.45;;
56319;SDS011;42226;42.382;23.748;2023-01-10T04:00:12;320.88;;;26.38;;
56319;SDS011;42226;42.382;23.748;2023-01-10T04:02:41;556.92;;;33.85;;
56319;SDS011;42226;42.382;23.748;2023-01-10T04:05:08;396.27;;;29.15;;
56319;SDS011;42226;42.382;23.748;2023-01-10T04:07:36;294.30;;;25.90;;
56319;SDS011;42226;42.382;23.748;2023-01-10T04:10:04;334.13;;;27.80;;
56319;SDS011;42226;42.382;23.748;2023-01-10T04:12:32;149.02;;;21.52;;
56319;SDS011;42226;42.382;23.748;2023-01-10T04:15:00;358.70;;;26.63;;
56319;SDS011;42226;42.382;23.748;2023-01-10T04:17:28;353.35;;;30.98;;
56319;SDS011;42226;42.382;23.748;2023-01-10T04:19:55;386.83;;;30.63;;
56319;SDS011;42226;42.382;23.748;2023-01-10T04:22:23;312.65;;;25.95;;
56319;SDS011;42226;42.382;23.748;2023-01-10T04:25:05;665.80;;;48.30;;
56319;SDS011;42226;42.382;23.748;2023-01-10T04:27:33;458.75;;;32.42;;
56319;SDS011;42226;42.382;23.748;2023-01-10T04:30:00;515.30;;;37.08;;
56319;SDS011;42226;42.382;23.748;2023-01-10T04:32:27;207.02;;;24.85;;
56319;SDS011;42226;42.382;23.748;2023-01-10T04:34:55;109.68;;;20.88;;
56319;SDS011;42226;42.382;23.748;2023-01-10T04:37:22;429.92;;;32.97;;
56319;SDS011;42226;42.382;23.748;2023-01-10T04:39:49;453.60;;;34.85;;
56319;SDS011;42226;42.382;23.748;2023-01-10T04:42:17;420.80;;;30.77;;
56319;SDS011;42226;42.382;23.748;2023-01-10T04:44:43;404.60;;;32.80;;
56319;SDS011;42226;42.382;23.748;2023-01-10T04:47:11;422.23;;;34.20;;
56319;SDS011;42226;42.382;23.748;2023-01-10T04:49:39;616.35;;;46.13;;
56319;SDS011;42226;42.382;23.748;2023-01-10T04:52:05;205.00;;;24.65;;
56319;SDS011;42226;42.382;23.748;2023-01-10T04:54:34;239.65;;;25.20;;
56319;SDS011;42226;42.382;23.748;2023-01-10T04:57:01;345.42;;;32.28;;
56319;SDS011;42226;42.382;23.748;2023-01-10T04:59:31;714.83;;;40.47;;
56319;SDS011;42226;42.382;23.748;2023-01-10T05:01:59;392.20;;;32.33;;
56319;SDS011;42226;42.382;23.748;2023-01-10T05:04:28;379.50;;;32.50;;
56319;SDS011;42226;42.382;23.748;2023-01-10T05:06:55;292.38;;;26.77;;
56319;SDS011;42226;42.382;23.748;2023-01-10T05:09:22;428.23;;;30.33;;
56319;SDS011;42226;42.382;23.748;2023-01-10T05:11:51;345.05;;;27.75;;
56319;SDS011;42226;42.382;23.748;2023-01-10T05:14:18;430.52;;;30.42;;
56319;SDS011;42226;42.382;23.748;2023-01-10T05:16:45;439.42;;;32.10;;
56319;SDS011;42226;42.382;23.748;2023-01-10T05:19:12;426.70;;;31.17;;
56319;SDS011;42226;42.382;23.748;2023-01-10T05:21:39;190.98;;;22.23;;
56319;SDS011;42226;42.382;23.748;2023-01-10T05:24:07;510.60;;;32.90;;
56319;SDS011;42226;42.382;23.748;2023-01-10T05:26:35;210.95;;;24.33;;
56319;SDS011;42226;42.382;23.748;2023-01-10T05:29:01;360.73;;;28.50;;
56319;SDS011;42226;42.382;23.748;2023-01-10T05:31:30;450.08;;;36.80;;
56319;SDS011;42226;42.382;23.748;2023-01-10T05:33:56;497.80;;;34.35;;
56319;SDS011;42226;42.382;23.748;2023-01-10T05:36:24;343.10;;;26.00;;
56319;SDS011;42226;42.382;23.748;2023-01-10T05:38:51;259.25;;;23.65;;
56319;SDS011;42226;42.382;23.748;2023-01-10T05:41:17;380.55;;;31.55;;
56319;SDS011;42226;42.382;23.748;2023-01-10T05:43:44;226.68;;;24.13;;
56319;SDS011;42226;42.382;23.748;2023-01-10T05:46:12;245.23;;;25.13;;
56319;SDS011;42226;42.382;23.748;2023-01-10T05:48:40;146.23;;;21.33;;
56319;SDS011;42226;42.382;23.748;2023-01-10T05:51:07;208.75;;;22.30;;
56319;SDS011;42226;42.382;23.748;2023-01-10T05:53:35;277.70;;;26.02;;
56319;SDS011;42226;42.382;23.748;2023-01-10T05:56:02;206.73;;;23.80;;
56319;SDS011;42226;42.382;23.748;2023-01-10T05:58:32;334.83;;;28.08;;
56319;SDS011;42226;42.382;23.748;2023-01-10T06:00:59;462.75;;;33.40;;
56319;SDS011;42226;42.382;23.748;2023-01-10T06:03:26;330.05;;;28.13;;
56319;SDS011;42226;42.382;23.748;2023-01-10T06:05:54;223.60;;;25.38;;
56319;SDS011;42226;42.382;23.748;2023-01-10T06:08:22;253.63;;;25.25;;
56319;SDS011;42226;42.382;23.748;2023-01-10T06:10:50;279.40;;;24.70;;
56319;SDS011;42226;42.382;23.748;2023-01-10T06:13:17;282.83;;;27.15;;
56319;SDS011;42226;42.382;23.748;2023-01-10T06:15:45;500.73;;;35.28;;
56319;SDS011;42226;42.382;23.748;2023-01-10T06:18:12;336.63;;;25.73;;
56319;SDS011;42226;42.382;23.748;2023-01-10T06:20:40;557.92;;;36.67;;
56319;SDS011;42226;42.382;23.748;2023-01-10T06:23:08;450.02;;;31.13;;
56319;SDS011;42226;42.382;23.748;2023-01-10T06:25:36;584.70;;;36.80;;
56319;SDS011;42226;42.382;23.748;2023-01-10T06:28:10;521.38;;;36.85;;
56319;SDS011;42226;42.382;23.748;2023-01-10T06:30:39;167.63;;;22.20;;
56319;SDS011;42226;42.382;23.748;2023-01-10T06:33:07;281.50;;;27.02;;
56319;SDS011;42226;42.382;23.748;2023-01-10T06:35:36;270.38;;;23.77;;
56319;SDS011;42226;42.382;23.748;2023-01-10T06:38:03;264.02;;;23.17;;
56319;SDS011;42226;42.382;23.748;2023-01-10T06:40:31;303.90;;;26.13;;
56319;SDS011;42226;42.382;23.748;2023-01-10T06:42:58;285.27;;;23.55;;
56319;SDS011;42226;42.382;23.748;2023-01-10T06:45:25;213.32;;;22.08;;
56319;SDS011;42226;42.382;23.748;2023-01-10T06:47:52;231.82;;;22.00;;
56319;SDS011;42226;42.382;23.748;2023-01-10T06:50:20;172.32;;;20.55;;
56319;SDS011;42226;42.382;23.748;2023-01-10T06:52:55;338.88;;;26.85;;
56319;SDS011;42226;42.382;23.748;2023-01-10T06:55:27;305.15;;;22.80;;
56319;SDS011;42226;42.382;23.748;2023-01-10T06:57:55;221.60;;;22.35;;
56319;SDS011;42226;42.382;23.748;2023-01-10T07:00:28;247.10;;;22.30;;
56319;SDS011;42226;42.382;23.748;2023-01-10T07:02:59;292.98;;;23.52;;
56319;SDS011;42226;42.382;23.748;2023-01-10T07:05:27;218.77;;;20.20;;
56319;SDS011;42226;42.382;23.748;2023-01-10T07:07:55;286.45;;;22.35;;
56319;SDS011;42226;42.382;23.748;2023-01-10T07:10:26;185.02;;;20.35;;
56319;SDS011;42226;42.382;23.748;2023-01-10T07:12:54;205.60;;;20.40;;
56319;SDS011;42226;42.382;23.748;2023-01-10T07:15:21;173.70;;;17.17;;
56319;SDS011;42226;42.382;23.748;2023-01-10T07:17:50;144.57;;;16.90;;
56319;SDS011;42226;42.382;23.748;2023-01-10T07:20:17;142.80;;;16.80;;
56319;SDS011;42226;42.382;23.748;2023-01-10T07:22:51;154.65;;;16.20;;
56319;SDS011;42226;42.382;23.748;2023-01-10T07:25:20;52.60;;;12.95;;
56319;SDS011;42226;42.382;23.748;2023-01-10T07:27:48;48.58;;;12.73;;
56319;SDS011;42226;42.382;23.748;2023-01-10T07:30:15;53.67;;;13.40;;
56319;SDS011;42226;42.382;23.748;2023-01-10T07:32:42;50.28;;;11.90;;
56319;SDS011;42226;42.382;23.748;2023-01-10T07:35:09;68.22;;;13.07;;
56319;SDS011;42226;42.382;23.748;2023-01-10T07:37:36;104.22;;;14.43;;
56319;SDS011;42226;42.382;23.748;2023-01-10T07:40:03;32.00;;;11.30;;
56319;SDS011;42226;42.382;23.748;2023-01-10T07:42:30;46.45;;;11.38;;
56319;SDS011;42226;42.382;23.748;2023-01-10T07:44:58;29.10;;;10.55;;
56319;SDS011;42226;42.382;23.748;2023-01-10T07:47:25;24.70;;;10.38;;
56319;SDS011;42226;42.382;23.748;2023-01-10T07:49:53;38.75;;;11.82;;
56319;SDS011;42226;42.382;23.748;2023-01-10T07:52:20;27.83;;;10.35;;
56319;SDS011;42226;42.382;23.748;2023-01-10T07:54:48;20.50;;;10.18;;
56319;SDS011;42226;42.382;23.748;2023-01-10T07:57:14;23.48;;;9.98;;
56319;SDS011;42226;42.382;23.748;2023-01-10T07:59:41;15.20;;;8.88;;
56319;SDS011;42226;42.382;23.748;2023-01-10T08:02:09;14.77;;;9.05;;
56319;SDS011;42226;42.382;23.748;2023-01-10T08:04:36;11.30;;;7.75;;
56319;SDS011;42226;42.382;23.748;2023-01-10T08:07:04;12.65;;;8.23;;
56319;SDS011;42226;42.382;23.748;2023-01-10T08:09:31;13.38;;;8.93;;
56319;SDS011;42226;42.382;23.748;2023-01-10T08:11:58;12.02;;;8.48;;
56319;SDS011;42226;42.382;23.748;2023-01-10T08:14:25;11.65;;;7.90;;
56319;SDS011;42226;42.382;23.748;2023-01-10T08:16:52;9.38;;;7.00;;
56319;SDS011;42226;42.382;23.748;2023-01-10T08:19:19;10.50;;;7.20;;
56319;SDS011;42226;42.382;23.748;2023-01-10T08:21:46;8.85;;;6.88;;
56319;SDS011;42226;42.382;23.748;2023-01-10T08:24:12;10.07;;;7.38;;
56319;SDS011;42226;42.382;23.748;2023-01-10T08:26:39;9.18;;;6.45;;
56319;SDS011;42226;42.382;23.748;2023-01-10T08:29:07;10.32;;;7.10;;
56319;SDS011;42226;42.382;23.748;2023-01-10T08:31:33;9.38;;;7.15;;
56319;SDS011;42226;42.382;23.748;2023-01-10T08:34:01;10.38;;;7.10;;
56319;SDS011;42226;42.382;23.748;2023-01-10T08:36:28;9.18;;;7.03;;
56319;SDS011;42226;42.382;23.748;2023-01-10T08:38:55;8.35;;;6.75;;
56319;SDS011;42226;42.382;23.748;2023-01-10T08:41:21;8.43;;;6.40;;
56319;SDS011;42226;42.382;23.748;2023-01-10T08:43:48;8.35;;;6.72;;
56319;SDS011;42226;42.382;23.748;2023-01-10T08:46:15;7.93;;;6.25;;
56319;SDS011;42226;42.382;23.748;2023-01-10T08:48:44;10.07;;;6.63;;
56319;SDS011;42226;42.382;23.748;2023-01-10T08:51:11;8.23;;;6.45;;
56319;SDS011;42226;42.382;23.748;2023-01-10T08:53:38;9.25;;;6.70;;
56319;SDS011;42226;42.382;23.748;2023-01-10T08:56:05;9.27;;;6.80;;
56319;SDS011;42226;42.382;23.748;2023-01-10T08:58:32;9.93;;;7.32;;
56319;SDS011;42226;42.382;23.748;2023-01-10T09:01:03;6.30;;;5.50;;
56319;SDS011;42226;42.382;23.748;2023-01-10T09:03:31;9.32;;;7.15;;
56319;SDS011;42226;42.382;23.748;2023-01-10T09:05:58;7.72;;;6.00;;
56319;SDS011;42226;42.382;23.748;2023-01-10T09:08:26;6.75;;;5.57;;
56319;SDS011;42226;42.382;23.748;2023-01-10T09:10:53;9.18;;;6.40;;
56319;SDS011;42226;42.382;23.748;2023-01-10T09:13:25;6.28;;;5.05;;
56319;SDS011;42226;42.382;23.748;2023-01-10T09:15:55;7.03;;;4.70;;
56319;SDS011;42226;42.382;23.748;2023-01-10T09:18:23;6.03;;;5.07;;
56319;SDS011;42226;42.382;23.748;2023-01-10T09:20:50;4.30;;;3.90;;
56319;SDS011;42226;42.382;23.748;2023-01-10T09:23:19;5.03;;;4.43;;
56319;SDS011;42226;42.382;23.748;2023-01-10T09:25:49;5.00;;;4.15;;
56319;SDS011;42226;42.382;23.748;2023-01-10T09:28:20;4.38;;;3.95;;
56319;SDS011;42226;42.382;23.748;2023-01-10T09:30:48;4.20;;;3.80;;
56319;SDS011;42226;42.382;23.748;2023-01-10T09:33:15;4.43;;;4.00;;
56319;SDS011;42226;42.382;23.748;2023-01-10T09:35:43;3.95;;;3.58;;
56319;SDS011;42226;42.382;23.748;2023-01-10T09:38:15;3.75;;;3.35;;
56319;SDS011;42226;42.382;23.748;2023-01-10T09:43:35;3.60;;;3.30;;
56319;SDS011;42226;42.382;23.748;2023-01-10T09:52:20;4.00;;;3.60;;
56319;SDS011;42226;42.382;23.748;2023-01-10T09:55:09;3.42;;;3.13;;
56319;SDS011;42226;42.382;23.748;2023-01-10T09:57:56;3.60;;;3.30;;
56319;SDS011;42226;42.382;23.748;2023-01-10T10:00:32;3.92;;;3.55;;
56319;SDS011;42226;42.382;23.748;2023-01-10T10:03:02;3.83;;;3.53;;
56319;SDS011;42226;42.382;23.748;2023-01-10T10:05:49;5.00;;;4.50;;
56319;SDS011;42226;42.382;23.748;2023-01-10T10:08:18;3.67;;;3.38;;
56319;SDS011;42226;42.382;23.748;2023-01-10T10:11:09;3.50;;;3.20;;
56319;SDS011;42226;42.382;23.748;2023-01-10T10:13:48;3.25;;;2.95;;
56319;SDS011;42226;42.382;23.748;2023-01-10T10:28:23;4.10;;;3.70;;
56319;SDS011;42226;42.382;23.748;2023-01-10T10:37:26;3.60;;;3.30;;
56319;SDS011;42226;42.382;23.748;2023-01-10T10:42:32;4.22;;;3.83;;
56319;SDS011;42226;42.382;23.748;2023-01-10T10:45:05;4.47;;;4.07;;
56319;SDS011;42226;42.382;23.748;2023-01-10T10:47:46;4.18;;;3.78;;
56319;SDS011;42226;42.382;23.748;2023-01-10T10:53:02;4.32;;;3.67;;
56319;SDS011;42226;42.382;23.748;2023-01-10T10:55:32;3.78;;;3.22;;
56319;SDS011;42226;42.382;23.748;2023-01-10T10:58:04;4.00;;;3.60;;
56319;SDS011;42226;42.382;23.748;2023-01-10T11:00:36;4.68;;;3.83;;
56319;SDS011;42226;42.382;23.748;2023-01-10T11:06:18;3.97;;;3.65;;
56319;SDS011;42226;42.382;23.748;2023-01-10T11:08:47;5.20;;;4.30;;
56319;SDS011;42226;42.382;23.748;2023-01-10T11:13:53;4.93;;;4.43;;
56319;SDS011;42226;42.382;23.748;2023-01-10T11:16:29;4.88;;;4.47;;
56319;SDS011;42226;42.382;23.748;2023-01-10T11:19:21;6.28;;;4.80;;
56319;SDS011;42226;42.382;23.748;2023-01-10T11:24:29;5.07;;;4.57;;
56319;SDS011;42226;42.382;23.748;2023-01-10T11:27:15;5.65;;;4.97;;
56319;SDS011;42226;42.382;23.748;2023-01-10T11:29:57;5.43;;;4.88;;
56319;SDS011;42226;42.382;23.748;2023-01-10T11:32:38;5.93;;;5.10;;
56319;SDS011;42226;42.382;23.748;2023-01-10T11:35:37;5.88;;;4.88;;
56319;SDS011;42226;42.382;23.748;2023-01-10T11:38:27;6.43;;;5.82;;
56319;SDS011;42226;42.382;23.748;2023-01-10T11:44:20;5.72;;;5.00;;
56319;SDS011;42226;42.382;23.748;2023-01-10T11:46:57;5.95;;;5.35;;
56319;SDS011;42226;42.382;23.748;2023-01-10T11:51:58;6.57;;;5.63;;
56319;SDS011;42226;42.382;23.748;2023-01-10T11:54:44;5.60;;;5.05;;
56319;SDS011;42226;42.382;23.748;2023-01-10T11:57:18;6.63;;;5.63;;
56319;SDS011;42226;42.382;23.748;2023-01-10T11:59:57;6.57;;;5.88;;
56319;SDS011;42226;42.382;23.748;2023-01-10T12:02:32;6.05;;;5.45;;
56319;SDS011;42226;42.382;23.748;2023-01-10T12:05:05;6.97;;;5.25;;
56319;SDS011;42226;42.382;23.748;2023-01-10T12:07:55;6.75;;;6.00;;
56319;SDS011;42226;42.382;23.748;2023-01-10T12:10:33;6.00;;;5.40;;
56319;SDS011;42226;42.382;23.748;2023-01-10T12:13:12;6.00;;;5.40;;
56319;SDS011;42226;42.382;23.748;2023-01-10T12:15:40;5.65;;;5.05;;
56319;SDS011;42226;42.382;23.748;2023-01-10T12:18:09;6.95;;;5.95;;
56319;SDS011;42226;42.382;23.748;2023-01-10T12:20:50;5.97;;;5.40;;
56319;SDS011;42226;42.382;23.748;2023-01-10T12:23:21;5.82;;;5.22;;
56319;SDS011;42226;42.382;23.748;2023-01-10T12:25:49;5.78;;;5.18;;
56319;SDS011;42226;42.382;23.748;2023-01-10T12:28:19;5.85;;;5.25;;
56319;SDS011;42226;42.382;23.748;2023-01-10T12:30:52;5.40;;;4.90;;
56319;SDS011;42226;42.382;23.748;2023-01-10T12:33:25;6.00;;;5.40;;
56319;SDS011;42226;42.382;23.748;2023-01-10T12:36:21;5.30;;;4.68;;
56319;SDS011;42226;42.382;23.748;2023-01-10T12:41:50;5.25;;;4.75;;
56319;SDS011;42226;42.382;23.748;2023-01-10T12:45:16;5.47;;;4.97;;
56319;SDS011;42226;42.382;23.748;2023-01-10T12:50:42;5.63;;;5.13;;
56319;SDS011;42226;42.382;23.748;2023-01-10T12:56:03;5.63;;;5.13;;
56319;SDS011;42226;42.382;23.748;2023-01-10T13:01:27;5.03;;;4.53;;
56319;SDS011;42226;42.382;23.748;2023-01-10T13:04:05;5.18;;;4.68;;
56319;SDS011;42226;42.382;23.748;2023-01-10T13:06:39;6.15;;;4.95;;
56319;SDS011;42226;42.382;23.748;2023-01-10T13:09:15;5.05;;;4.63;;
56319;SDS011;42226;42.382;23.748;2023-01-10T13:12:02;5.05;;;4.55;;
56319;SDS011;42226;42.382;23.748;2023-01-10T13:14:41;5.00;;;4.50;;
56319;SDS011;42226;42.382;23.748;2023-01-10T13:17:33;5.15;;;4.65;;
56319;SDS011;42226;42.382;23.748;2023-01-10T13:22:44;4.43;;;4.03;;
56319;SDS011;42226;42.382;23.748;2023-01-10T13:25:32;4.05;;;3.70;;
56319;SDS011;42226;42.382;23.748;2023-01-10T13:31:03;4.43;;;3.92;;
56319;SDS011;42226;42.382;23.748;2023-01-10T13:34:09;4.20;;;3.80;;
56319;SDS011;42226;42.382;23.748;2023-01-10T13:39:26;4.40;;;4.00;;
56319;SDS011;42226;42.382;23.748;2023-01-10T13:47:55;4.25;;;3.83;;
56319;SDS011;42226;42.382;23.748;2023-01-10T14:00:42;4.20;;;3.90;;
56319;SDS011;42226;42.382;23.748;2023-01-10T14:08:57;4.03;;;3.63;;
56319;SDS011;42226;42.382;23.748;2023-01-10T14:11:29;4.40;;;4.00;;
56319;SDS011;42226;42.382;23.748;2023-01-10T14:14:18;4.00;;;3.60;;
56319;SDS011;42226;42.382;23.748;2023-01-10T14:19:42;4.25;;;3.85;;
56319;SDS011;42226;42.382;23.748;2023-01-10T14:24:59;3.90;;;3.50;;
56319;SDS011;42226;42.382;23.748;2023-01-10T14:27:35;3.97;;;3.67;;
56319;SDS011;42226;42.382;23.748;2023-01-10T14:30:26;3.70;;;3.40;;
56319;SDS011;42226;42.382;23.748;2023-01-10T14:32:59;3.70;;;3.40;;
56319;SDS011;42226;42.382;23.748;2023-01-10T14:35:43;3.38;;;3.08;;
56319;SDS011;42226;42.382;23.748;2023-01-10T14:38:24;2.60;;;2.40;;
56319;SDS011;42226;42.382;23.748;2023-01-10T14:40:58;2.70;;;2.50;;
56319;SDS011;42226;42.382;23.748;2023-01-10T14:47:27;1.85;;;1.75;;
56319;SDS011;42226;42.382;23.748;2023-01-10T14:50:00;2.22;;;1.70;;
56319;SDS011;42226;42.382;23.748;2023-01-10T14:52:31;2.50;;;1.90;;
56319;SDS011;42226;42.382;23.748;2023-01-10T14:57:58;2.03;;;1.77;;
56319;SDS011;42226;42.382;23.748;2023-01-10T15:00:31;3.22;;;1.70;;
56319;SDS011;42226;42.382;23.748;2023-01-10T15:03:01;1.50;;;1.40;;
56319;SDS011;42226;42.382;23.748;2023-01-10T15:05:29;1.70;;;1.60;;
56319;SDS011;42226;42.382;23.748;2023-01-10T15:08:20;1.70;;;1.60;;
56319;SDS011;42226;42.382;23.748;2023-01-10T15:10:51;1.63;;;1.40;;
56319;SDS011;42226;42.382;23.748;2023-01-10T15:13:22;1.60;;;1.50;;
56319;SDS011;42226;42.382;23.748;2023-01-10T15:15:53;1.58;;;1.40;;
56319;SDS011;42226;42.382;23.748;2023-01-10T15:21:02;1.52;;;1.42;;
56319;SDS011;42226;42.382;23.748;2023-01-10T15:23:34;2.38;;;1.50;;
56319;SDS011;42226;42.382;23.748;2023-01-10T15:26:49;1.50;;;1.40;;
56319;SDS011;42226;42.382;23.748;2023-01-10T15:29:09;1.50;;;1.40;;
56319;SDS011;42226;42.382;23.748;2023-01-10T15:31:42;1.60;;;1.50;;
56319;SDS011;42226;42.382;23.748;2023-01-10T15:34:14;1.50;;;1.40;;
56319;SDS011;42226;42.382;23.748;2023-01-10T15:36:50;1.50;;;1.40;;
56319;SDS011;42226;42.382;23.748;2023-01-10T15:39:24;1.55;;;1.45;;
56319;SDS011;42226;42.382;23.748;2023-01-10T15:42:00;1.70;;;1.60;;
56319;SDS011;42226;42.382;23.748;2023-01-10T15:44:40;1.88;;;1.30;;
56319;SDS011;42226;42.382;23.748;2023-01-10T15:50:28;1.60;;;1.50;;
56319;SDS011;42226;42.382;23.748;2023-01-10T15:53:02;1.27;;;1.27;;
56319;SDS011;42226;42.382;23.748;2023-01-10T15:55:46;1.60;;;1.50;;
56319;SDS011;42226;42.382;23.748;2023-01-10T15:58:29;1.60;;;1.50;;
56319;SDS011;42226;42.382;23.748;2023-01-10T16:01:01;1.40;;;1.30;;
56319;SDS011;42226;42.382;23.748;2023-01-10T16:03:38;1.13;;;1.13;;
56319;SDS011;42226;42.382;23.748;2023-01-10T16:06:24;1.10;;;1.10;;
56319;SDS011;42226;42.382;23.748;2023-01-10T16:08:54;1.30;;;1.20;;
56319;SDS011;42226;42.382;23.748;2023-01-10T16:11:31;1.10;;;1.10;;
56319;SDS011;42226;42.382;23.748;2023-01-10T16:14:33;1.20;;;1.20;;
56319;SDS011;42226;42.382;23.748;2023-01-10T16:17:00;1.10;;;1.10;;
56319;SDS011;42226;42.382;23.748;2023-01-10T16:19:29;1.10;;;1.10;;
56319;SDS011;42226;42.382;23.748;2023-01-10T16:21:56;0.93;;;0.93;;
56319;SDS011;42226;42.382;23.748;2023-01-10T16:24:26;1.10;;;1.10;;
56319;SDS011;42226;42.382;23.748;2023-01-10T16:26:56;1.67;;;1.17;;
56319;SDS011;42226;42.382;23.748;2023-01-10T16:29:28;1.20;;;1.10;;
56319;SDS011;42226;42.382;23.748;2023-01-10T16:31:55;1.23;;;1.00;;
56319;SDS011;42226;42.382;23.748;2023-01-10T16:34:22;1.25;;;1.00;;
56319;SDS011;42226;42.382;23.748;2023-01-10T16:36:50;1.00;;;1.00;;
56319;SDS011;42226;42.382;23.748;2023-01-10T16:39:20;0.93;;;0.93;;
56319;SDS011;42226;42.382;23.748;2023-01-10T16:41:49;1.25;;;1.17;;
56319;SDS011;42226;42.382;23.748;2023-01-10T16:44:34;1.48;;;1.38;;
56319;SDS011;42226;42.382;23.748;2023-01-10T16:47:02;1.30;;;1.20;;
56319;SDS011;42226;42.382;23.748;2023-01-10T16:49:30;2.50;;;1.30;;
56319;SDS011;42226;42.382;23.748;2023-01-10T16:51:57;1.88;;;1.50;;
56319;SDS011;42226;42.382;23.748;2023-01-10T16:54:25;1.75;;;1.48;;
56319;SDS011;42226;42.382;23.748;2023-01-10T16:56:52;1.70;;;1.60;;